createdAt,value
2023-05-11T00:00:00.944Z,24.17
2023-05-11T00:03:02.700Z,27.60
2023-05-11T00:06:04.612Z,25.43
2023-05-11T00:09:06.659Z,26.97
2023-05-11T00:12:08.383Z,28.37
2023-05-11T00:15:10.645Z,29.23
2023-05-11T00:18:12.450Z,27.60
2023-05-11T00:21:14.231Z,30.63
2023-05-11T00:24:16.094Z,28.13
2023-05-11T00:27:17.746Z,28.10
2023-05-11T00:30:19.739Z,24.57
2023-05-11T00:33:21.592Z,27.20
2023-05-11T00:36:23.294Z,25.33
2023-05-11T00:39:24.999Z,25.97
2023-05-11T00:42:26.660Z,25.90
2023-05-11T00:45:30.552Z,24.93
2023-05-11T00:52:09.692Z,35.03
2023-05-11T00:55:13.403Z,30.50
2023-05-11T00:58:16.482Z,28.70
2023-05-11T01:01:18.735Z,25.27
2023-05-11T01:04:20.856Z,33.57
2023-05-11T01:07:34.399Z,30.77
2023-05-11T01:10:49.291Z,27.87
2023-05-11T01:13:56.774Z,28.87
2023-05-11T01:17:05.866Z,32.13
2023-05-11T01:20:12.763Z,31.33
2023-05-11T01:23:35.441Z,30.30
2023-05-11T01:27:01.771Z,29.13
2023-05-11T01:30:32.089Z,28.43
2023-05-11T01:33:37.199Z,26.20
2023-05-11T01:36:46.927Z,25.07
2023-05-11T01:39:55.275Z,27.47
2023-05-11T01:43:13.718Z,22.07
2023-05-11T01:46:17.553Z,26.83
2023-05-11T01:49:19.895Z,22.90
2023-05-11T01:52:24.888Z,22.97
2023-05-11T01:55:27.975Z,25.00
2023-05-11T01:58:30.951Z,25.30
2023-05-11T02:01:35.707Z,23.10
2023-05-11T02:04:40.061Z,24.37
2023-05-11T02:07:44.316Z,24.37
2023-05-11T02:10:47.185Z,25.67
2023-05-11T02:13:51.467Z,25.40
2023-05-11T02:16:56.089Z,25.17
2023-05-11T02:23:32.527Z,24.80
2023-05-11T02:26:34.689Z,27.30
2023-05-11T02:29:37.225Z,23.00
2023-05-11T02:32:47.609Z,25.53
2023-05-11T02:35:51.318Z,27.63
2023-05-11T02:38:58.455Z,24.60
2023-05-11T02:42:13.743Z,24.47
2023-05-11T02:45:17.799Z,26.37
2023-05-11T02:48:29.167Z,26.97
2023-05-11T02:51:36.184Z,25.93
2023-05-11T02:54:40.175Z,28.17
2023-05-11T02:57:43.313Z,22.43
2023-05-11T03:00:46.306Z,25.17
2023-05-11T03:03:48.303Z,21.90
2023-05-11T03:06:51.112Z,23.83
2023-05-11T03:09:53.253Z,20.03
2023-05-11T03:12:56.095Z,20.00
2023-05-11T03:15:59.893Z,20.23
2023-05-11T03:19:02.858Z,18.33
2023-05-11T03:22:04.905Z,20.47
2023-05-11T03:25:08.616Z,18.77
2023-05-11T03:28:12.629Z,15.13
2023-05-11T03:31:18.738Z,17.37
2023-05-11T03:34:21.351Z,16.20
2023-05-11T03:40:54.763Z,13.27
2023-05-11T03:44:00.061Z,12.90
2023-05-11T03:47:04.276Z,14.23
2023-05-11T03:57:15.891Z,13.53
2023-05-11T04:00:18.234Z,14.20
2023-05-11T04:06:51.628Z,14.30
2023-05-11T04:09:56.553Z,17.83
2023-05-11T04:12:58.337Z,14.67
2023-05-11T04:16:00.081Z,17.37
2023-05-11T04:19:02.436Z,17.57
2023-05-11T04:22:04.428Z,16.57
2023-05-11T04:28:43.618Z,25.77
2023-05-11T04:31:45.388Z,17.83
2023-05-11T04:34:47.169Z,20.30
2023-05-11T04:37:51.896Z,17.70
2023-05-11T04:44:24.783Z,20.50
2023-05-11T04:47:26.574Z,21.03
2023-05-11T05:01:15.673Z,19.53
2023-05-11T05:07:42.109Z,19.60
2023-05-11T05:22:03.518Z,12.40
2023-05-11T05:32:34.054Z,17.17
2023-05-11T05:39:12.225Z,17.17
2023-05-11T05:42:15.098Z,16.03
2023-05-11T05:55:49.626Z,18.87
2023-05-11T06:05:59.426Z,18.20
2023-05-11T06:22:58.586Z,17.37
2023-05-11T06:26:01.186Z,15.27
2023-05-11T06:39:37.641Z,10.67
2023-05-11T06:57:06.737Z,7.87
2023-05-11T07:00:08.987Z,5.10
2023-05-11T07:03:10.740Z,5.13
2023-05-11T07:06:12.529Z,5.47
2023-05-11T07:09:14.339Z,4.67
2023-05-11T07:12:16.095Z,6.40
2023-05-11T07:15:17.936Z,7.87
2023-05-11T07:18:19.793Z,7.10
2023-05-11T07:21:24.668Z,8.80
2023-05-11T07:24:26.379Z,10.10
2023-05-11T07:27:28.161Z,8.43
2023-05-11T07:30:29.917Z,10.03
2023-05-11T07:33:33.354Z,10.03
2023-05-11T07:36:35.012Z,11.77
2023-05-11T07:39:36.739Z,8.70
2023-05-11T07:42:38.389Z,8.80
2023-05-11T07:45:40.201Z,8.63
2023-05-11T07:48:41.856Z,8.47
2023-05-11T07:51:44.388Z,8.57
2023-05-11T07:54:46.083Z,8.23
2023-05-11T07:57:47.861Z,10.50
2023-05-11T08:00:49.526Z,8.00
2023-05-11T08:03:51.208Z,7.60
2023-05-11T08:06:53.229Z,9.53
2023-05-11T08:09:54.893Z,10.63
2023-05-11T08:12:56.612Z,9.17
2023-05-11T08:15:58.454Z,11.70
2023-05-11T08:19:00.259Z,9.87
2023-05-11T08:22:01.998Z,9.70
2023-05-11T08:25:04.046Z,10.43
2023-05-11T08:28:05.764Z,8.17
2023-05-11T08:31:08.001Z,10.80
2023-05-11T08:34:18.201Z,9.43
2023-05-11T08:37:21.182Z,11.43
2023-05-11T08:40:26.460Z,10.67
2023-05-11T08:43:29.252Z,11.40
2023-05-11T08:46:35.564Z,11.30
2023-05-11T08:49:37.356Z,10.10
2023-05-11T08:52:40.572Z,7.87
2023-05-11T08:55:44.225Z,10.30
2023-05-11T08:58:47.286Z,8.87
2023-05-11T09:01:51.278Z,8.50
2023-05-11T09:04:54.213Z,7.87
2023-05-11T09:08:02.097Z,7.83
2023-05-11T09:11:04.298Z,8.80
2023-05-11T09:14:06.353Z,8.07
2023-05-11T09:17:08.179Z,13.23
2023-05-11T09:20:10.554Z,8.53
2023-05-11T09:23:17.283Z,8.00
2023-05-11T09:26:29.641Z,7.43
2023-05-11T09:29:32.082Z,6.63
2023-05-11T09:32:56.192Z,7.10
2023-05-11T09:35:59.548Z,7.97
2023-05-11T09:39:04.536Z,6.90
2023-05-11T09:42:13.704Z,6.97
2023-05-11T09:45:38.545Z,7.67
2023-05-11T09:48:40.201Z,6.80
2023-05-11T09:51:41.950Z,8.73
2023-05-11T09:54:53.025Z,10.10
2023-05-11T09:57:59.109Z,8.80
2023-05-11T10:01:00.815Z,7.90
2023-05-11T10:04:21.350Z,8.67
2023-05-11T10:07:29.918Z,7.17
2023-05-11T10:10:33.436Z,9.07
2023-05-11T10:13:37.597Z,6.57
2023-05-11T10:16:42.133Z,9.53
2023-05-11T10:19:45.528Z,8.87
2023-05-11T10:22:47.480Z,7.33
2023-05-11T10:25:50.362Z,7.37
2023-05-11T10:28:53.059Z,8.77
2023-05-11T10:31:57.624Z,9.37
2023-05-11T10:35:00.156Z,7.30
2023-05-11T10:38:01.891Z,5.83
2023-05-11T10:41:32.818Z,6.27
2023-05-11T10:44:44.614Z,8.17
2023-05-11T10:48:10.953Z,8.67
2023-05-11T10:51:48.051Z,7.50
2023-05-11T10:55:23.524Z,10.57
2023-05-11T10:58:42.608Z,7.70
2023-05-11T11:01:45.527Z,6.50
2023-05-11T11:04:49.601Z,5.87
2023-05-11T11:08:03.881Z,5.53
2023-05-11T11:11:29.213Z,6.00
2023-05-11T11:14:54.597Z,7.23
2023-05-11T11:18:22.340Z,6.53
2023-05-11T11:21:41.803Z,7.03
2023-05-11T11:24:45.550Z,7.73
2023-05-11T11:27:47.366Z,5.90
2023-05-11T11:31:09.011Z,9.17
2023-05-11T11:34:28.670Z,5.97
2023-05-11T11:37:30.399Z,7.37
2023-05-11T11:40:43.223Z,5.03
2023-05-11T11:43:55.289Z,3.70
2023-05-11T11:47:22.080Z,3.73
2023-05-11T11:50:27.923Z,3.13
2023-05-11T11:53:42.341Z,3.03
2023-05-11T11:56:44.864Z,4.43
2023-05-11T11:59:49.787Z,4.00
2023-05-11T12:02:53.199Z,4.37
2023-05-11T12:06:01.533Z,7.23
2023-05-11T12:09:04.880Z,2.57
2023-05-11T12:12:08.592Z,4.13
2023-05-11T12:15:26.170Z,3.97
2023-05-11T12:18:27.987Z,3.67
2023-05-11T12:21:33.921Z,4.60
2023-05-11T12:24:35.803Z,3.17
2023-05-11T12:27:49.056Z,4.07
2023-05-11T12:30:56.664Z,5.23
2023-05-11T12:33:59.332Z,3.43
2023-05-11T12:37:06.471Z,3.97
2023-05-11T12:40:11.168Z,3.53
2023-05-11T12:43:17.306Z,4.37
2023-05-11T12:46:19.981Z,3.00
2023-05-11T12:49:26.593Z,4.97
2023-05-11T12:52:28.757Z,2.60
2023-05-11T12:55:30.942Z,4.83
2023-05-11T12:58:40.291Z,2.80
2023-05-11T13:01:42.168Z,2.20
2023-05-11T13:04:46.767Z,3.77
2023-05-11T13:07:57.576Z,2.17
2023-05-11T13:11:24.584Z,1.23
2023-05-11T13:14:31.065Z,1.80
2023-05-11T13:17:37.311Z,3.57
2023-05-11T13:20:39.884Z,2.10
2023-05-11T13:23:42.255Z,3.20
2023-05-11T13:26:44.061Z,2.40
2023-05-11T13:29:45.842Z,3.37
2023-05-11T13:32:47.605Z,3.23
2023-05-11T13:35:49.380Z,2.83
2023-05-11T13:38:51.493Z,2.00
2023-05-11T13:41:55.655Z,4.10
2023-05-11T13:44:58.499Z,2.03
2023-05-11T13:48:00.655Z,2.30
2023-05-11T13:51:02.444Z,1.97
2023-05-11T13:54:04.651Z,2.10
2023-05-11T13:57:07.298Z,3.70
2023-05-11T14:00:10.069Z,2.80
2023-05-11T14:03:14.665Z,2.20
2023-05-11T14:06:16.408Z,2.37
2023-05-11T14:09:18.158Z,3.23
2023-05-11T14:12:19.816Z,2.07
2023-05-11T14:15:21.679Z,1.60
2023-05-11T14:18:25.057Z,2.50
2023-05-11T14:21:26.952Z,2.10
2023-05-11T14:24:28.983Z,2.80
2023-05-11T14:27:31.577Z,2.03
2023-05-11T14:30:33.914Z,2.03
2023-05-11T14:33:35.695Z,3.83
2023-05-11T14:36:38.309Z,2.53
2023-05-11T14:39:41.345Z,2.27
2023-05-11T14:42:43.066Z,1.43
2023-05-11T14:45:47.376Z,2.03
2023-05-11T14:48:50.208Z,2.93
2023-05-11T14:51:51.939Z,2.47
2023-05-11T14:54:53.657Z,1.80
2023-05-11T14:57:56.448Z,2.20
2023-05-11T15:00:58.244Z,2.67
2023-05-11T15:03:59.995Z,1.83
2023-05-11T15:07:01.751Z,4.33
2023-05-11T15:10:04.350Z,2.03
2023-05-11T15:13:06.979Z,2.50
2023-05-11T15:16:08.804Z,2.17
2023-05-11T15:19:10.748Z,3.33
2023-05-11T15:22:12.824Z,2.47
2023-05-11T15:25:14.499Z,1.80
2023-05-11T15:28:17.603Z,1.97
2023-05-11T15:31:19.325Z,3.30
2023-05-11T15:34:21.081Z,2.03
2023-05-11T15:37:23.238Z,3.00
2023-05-11T15:40:25.121Z,1.63
2023-05-11T15:43:26.873Z,2.20
2023-05-11T15:46:28.646Z,1.57
2023-05-11T15:49:30.566Z,1.90
2023-05-11T15:52:32.256Z,1.93
2023-05-11T15:55:34.375Z,1.60
2023-05-11T15:58:36.128Z,1.97
2023-05-11T16:01:37.991Z,3.10
2023-05-11T16:04:39.797Z,2.80
2023-05-11T16:07:41.644Z,2.90
2023-05-11T16:10:43.356Z,4.00
2023-05-11T16:13:45.620Z,3.97
2023-05-11T16:16:47.341Z,2.73
2023-05-11T16:19:49.018Z,2.60
2023-05-11T16:22:50.684Z,3.87
2023-05-11T16:25:52.433Z,3.47
2023-05-11T16:28:54.132Z,4.33
2023-05-11T16:31:56.401Z,3.37
2023-05-11T16:34:58.281Z,3.37
2023-05-11T16:38:00.256Z,2.60
2023-05-11T16:41:02.393Z,6.33
2023-05-11T16:44:04.229Z,8.40
2023-05-11T16:47:06.009Z,6.97
2023-05-11T16:50:08.173Z,5.03
2023-05-11T16:53:10.175Z,4.40
2023-05-11T16:56:13.275Z,6.10
2023-05-11T16:59:14.995Z,6.40
2023-05-11T17:02:16.720Z,6.50
2023-05-11T17:05:19.307Z,7.27
2023-05-11T17:08:21.018Z,3.57
2023-05-11T17:11:23.653Z,3.70
2023-05-11T17:14:25.519Z,6.47
2023-05-11T17:17:27.388Z,4.47
2023-05-11T17:20:29.246Z,7.90
2023-05-11T17:23:31.429Z,6.63
2023-05-11T17:26:46.554Z,5.23
2023-05-11T17:29:50.271Z,3.20
2023-05-11T17:32:52.209Z,4.27
2023-05-11T17:35:54.303Z,5.00
2023-05-11T17:38:56.328Z,7.30
2023-05-11T17:41:58.024Z,5.43
2023-05-11T17:44:59.787Z,6.23
2023-05-11T17:48:01.496Z,6.83
2023-05-11T17:51:03.319Z,8.83
2023-05-11T17:54:05.196Z,8.67
2023-05-11T17:57:06.888Z,4.97
2023-05-11T18:00:10.831Z,6.90
2023-05-11T18:03:12.729Z,7.47
2023-05-11T18:06:14.650Z,6.97
2023-05-11T18:09:18.740Z,8.57
2023-05-11T18:12:20.550Z,6.90
2023-05-11T18:15:22.257Z,5.37
2023-05-11T18:18:24.706Z,5.77
2023-05-11T18:21:29.207Z,5.17
2023-05-11T18:24:30.927Z,7.10
2023-05-11T18:27:32.581Z,6.43
2023-05-11T18:30:35.555Z,6.97
2023-05-11T18:33:37.683Z,8.20
2023-05-11T18:36:39.425Z,7.93
2023-05-11T18:39:41.085Z,5.93
2023-05-11T18:42:42.746Z,6.63
2023-05-11T18:45:46.251Z,6.03
2023-05-11T18:48:50.451Z,6.37
2023-05-11T18:51:52.302Z,6.93
2023-05-11T18:54:56.563Z,8.87
2023-05-11T18:58:00.243Z,9.00
2023-05-11T19:01:01.993Z,8.23
2023-05-11T19:04:03.811Z,7.63
2023-05-11T19:07:05.816Z,9.73
2023-05-11T19:10:08.138Z,6.40
2023-05-11T19:13:09.821Z,8.47
2023-05-11T19:16:11.776Z,8.73
2023-05-11T19:19:13.583Z,8.50
2023-05-11T19:22:16.919Z,9.27
2023-05-11T19:25:18.664Z,8.63
2023-05-11T19:28:20.329Z,6.73
2023-05-11T19:31:25.097Z,7.73
2023-05-11T19:34:26.911Z,8.37
2023-05-11T19:37:28.574Z,14.33
2023-05-11T19:43:35.154Z,10.53
2023-05-11T19:46:36.910Z,12.03
2023-05-11T19:49:38.763Z,11.40
2023-05-11T19:52:40.575Z,11.17
2023-05-11T19:55:42.362Z,15.37
2023-05-11T19:58:44.025Z,12.30
2023-05-11T20:01:47.536Z,12.70
2023-05-11T20:04:49.352Z,11.77
2023-05-11T20:07:51.069Z,13.47
2023-05-11T20:10:52.845Z,13.20
2023-05-11T20:13:54.627Z,13.07
2023-05-11T20:16:56.324Z,14.33
2023-05-11T20:19:58.332Z,10.93
2023-05-11T20:23:03.500Z,13.03
2023-05-11T20:26:05.183Z,12.50
2023-05-11T20:29:09.035Z,14.70
2023-05-11T20:32:10.696Z,14.30
2023-05-11T20:35:12.956Z,14.40
2023-05-11T20:38:14.640Z,13.17
2023-05-11T20:41:16.391Z,16.80
2023-05-11T20:44:18.715Z,20.20
2023-05-11T20:47:20.460Z,18.23
2023-05-11T20:50:22.642Z,19.40
2023-05-11T20:53:24.417Z,21.67
2023-05-11T20:56:26.094Z,19.87
2023-05-11T21:02:33.252Z,21.57
2023-05-11T21:05:35.185Z,19.87
2023-05-11T21:08:37.027Z,20.40
2023-05-11T21:11:38.719Z,21.20
2023-05-11T21:14:40.413Z,20.17
2023-05-11T21:17:42.198Z,21.73
2023-05-11T21:20:44.150Z,20.57
2023-05-11T21:23:48.459Z,19.93
2023-05-11T21:26:50.213Z,20.97
2023-05-11T21:29:52.379Z,19.37
2023-05-11T21:32:54.184Z,22.50
2023-05-11T21:35:56.411Z,21.10
2023-05-11T21:38:58.230Z,21.97
2023-05-11T21:41:59.997Z,25.17
2023-05-11T21:45:02.734Z,26.73
2023-05-11T21:48:04.929Z,20.50
2023-05-11T21:51:06.691Z,22.37
2023-05-11T21:54:08.429Z,21.60
2023-05-11T21:57:10.290Z,19.97
2023-05-11T22:00:18.224Z,19.57
2023-05-11T22:03:20.508Z,18.47
2023-05-11T22:06:22.360Z,22.53
2023-05-11T22:09:24.052Z,18.70
2023-05-11T22:12:25.882Z,19.20
2023-05-11T22:15:28.389Z,20.53
2023-05-11T22:18:30.235Z,16.63
2023-05-11T22:21:31.999Z,18.67
2023-05-11T22:24:33.703Z,14.30
2023-05-11T22:27:35.952Z,16.20
2023-05-11T22:30:37.826Z,15.43
2023-05-11T22:33:39.556Z,14.27
2023-05-11T22:36:41.261Z,14.10
2023-05-11T22:39:42.907Z,13.63
2023-05-11T22:42:44.566Z,12.13
2023-05-11T22:45:46.288Z,11.80
2023-05-11T22:48:48.011Z,13.63
2023-05-11T22:51:49.677Z,13.93
2023-05-11T22:55:00.260Z,14.53
2023-05-11T22:58:02.096Z,16.83
2023-05-11T23:01:03.864Z,16.07
2023-05-11T23:04:05.614Z,15.27
2023-05-11T23:07:07.846Z,15.83
2023-05-11T23:10:09.942Z,19.50
2023-05-11T23:13:11.602Z,23.93
2023-05-11T23:16:13.300Z,26.97
2023-05-11T23:19:15.064Z,23.83
2023-05-11T23:22:16.795Z,23.50
2023-05-11T23:25:18.570Z,22.73
2023-05-11T23:28:20.591Z,22.40
2023-05-11T23:31:22.267Z,26.93
2023-05-11T23:34:24.055Z,27.23
2023-05-11T23:37:25.766Z,26.47
2023-05-11T23:40:28.352Z,28.67
2023-05-11T23:43:30.197Z,30.00
2023-05-11T23:46:32.561Z,32.73
2023-05-11T23:49:34.391Z,25.73
2023-05-11T23:52:36.042Z,31.73
2023-05-11T23:55:37.681Z,29.20
2023-05-11T23:58:41.274Z,30.13
